Detall de PIREP

Printer-friendly versionPDF version

[2012/04/09 10:25:00]
Flight IATA:CT1004
Pilot Number:042
Company ICAO:CAT
Aircraft Type:F100/A
PAX:80
Aircraft Registration:PFJ
Departing Airport: LIEE
Destination Airport: LEVC
Alternate Airport:LEPA
Online: VATSIM
Route:CAR UM871 MJV A33 GATOS UN733 TURIA A33 RIKOS
Flight Level:F320
No Slew and time accel
No pause
Crash detect
Detect pilot in Cockpit between each 30 and 45 minutes
10:25 Zero fuel Weight: 81827 Lbs, Fuel Weight: 22685 Lbs
10:25 VATSIM:LIEE 090955Z 29010KT 9999 FEW020 SCT030 17/06 Q1013 RMK BKN VIS MIN 9999 WIND THR14 30012KT BLU
10:25 VATSIM:LEVC 091000Z VRB02KT 9999 FEW025 17/11 Q1015 NOSIG
10:25 VOICE CATALONIAN/EASTER CHARTER
10:31 Parking Brakes off
10:34 Take-off
10:34 Take off Weight: 104128 Lbs
10:34 Wind: 292º @ 008 Knots Heading: 316º
10:34 POS N39º 15´ 18´´ E009º 03´ 09´´
10:34 Gear Up: 162 Knots
10:34 Flaps:2 at 162 Knots
10:35 Flaps:1 at 206 Knots
10:36 Flaps:0 at 221 Knots
10:49 Wind:299º@018 Knots Heading: 292º Ground Speed: 416 Knots Altitude 25209 ft
10:55 TOC
10:55 Fuel Weight: 19532 Lb
11:04 Wind:250º@011 Knots Heading: 265º Ground Speed: 446 Knots Altitude 32011 ft
11:19 Wind:202º@021 Knots Heading: 261º Ground Speed: 448 Knots Altitude 32050 ft
11:26 TOD
11:26 Fuel Weight: 16912 Lb
11:34 Wind:120º@014 Knots Heading: 270º Ground Speed: 388 Knots Altitude 20938 ft
11:49 Wind:080º@020 Knots Heading: 286º Ground Speed: 283 Knots Altitude 7011 ft
11:52 Flaps:1 at 217 Knots
11:52 Flaps:2 at 216 Knots
11:55 Gear Down: 159 Knots
11:56 Flaps:3 at 158 Knots
11:56 Flaps:4 at 152 Knots
11:59 TouchDown:Rate -282 ft/min Speed: 110 Knots
12:00 VATSIM:LEVC 091130Z 08009KT 050V120 9999 FEW025 18/11 Q1014 NOSIG
12:00 Land
12:00 Wind:081º@009 Knots
12:00 Heading: 115º
12:00 Flight Duration: 01:26
12:00 Landing Weight: 96840 Lbs
12:00 POS N39º 29´ 32´´ W000º 29´ 25´´
12:02 Parking brakes on
12:02 Block to Block Duration: 01:31
12:02 Final Fuel: 14896 Lbls
12:02 Spent Fuel: 7788 Lbls
12:02 Flight Length: 531 NM
12:02 TOD Land Length: 177 NM

Exportar CSV

Powered by Drupal - Modified by Danger4k